Venice, Louisiana
Current Conditions -  °F | °C
As of 5:02 AM on Sunday 23 Nov 2014 (Local Time) from KBVE Reporting Station
Scattered Clouds Scattered Clouds  
Wind Chill: 66°   Ceiling: Unl
Heat Index: 66°   Visibility: 8mi
Dew Point: 66°   Wind: 8mph
Humidity: 100%   Direction: 120°ESE
Pressure: 29.72"   Gusts: NA
Location:  29.28°N, 89.36°W
Report Text: KBVE 231102Z AUTO 12007KT 8SM SCT002 19/19 A2972 RMK AO2 T01890189
Loading
Personal Weather Stations






























Interactive Weather Map New forecast layout! Learn more

10-Day Weather Forecast

Advertisements
Track Severe Weather on mobile